sensor_id;sensor_type;location;lat;lon;timestamp;P1;durP1;ratioP1;P2;durP2;ratioP2
21581;SDS011;10952;50.836;4.348;2023-08-06T00:00:06;4.40;;;2.10;;
21581;SDS011;10952;50.836;4.348;2023-08-06T00:02:33;5.30;;;2.07;;
21581;SDS011;10952;50.836;4.348;2023-08-06T00:04:59;5.03;;;2.17;;
21581;SDS011;10952;50.836;4.348;2023-08-06T00:07:25;4.33;;;2.20;;
21581;SDS011;10952;50.836;4.348;2023-08-06T00:09:50;5.93;;;2.70;;
21581;SDS011;10952;50.836;4.348;2023-08-06T00:12:16;7.20;;;2.23;;
21581;SDS011;10952;50.836;4.348;2023-08-06T00:14:42;6.90;;;2.83;;
21581;SDS011;10952;50.836;4.348;2023-08-06T00:17:08;4.73;;;2.57;;
21581;SDS011;10952;50.836;4.348;2023-08-06T00:19:33;7.83;;;2.83;;
21581;SDS011;10952;50.836;4.348;2023-08-06T00:21:59;6.07;;;2.60;;
21581;SDS011;10952;50.836;4.348;2023-08-06T00:24:26;5.87;;;2.40;;
21581;SDS011;10952;50.836;4.348;2023-08-06T00:26:52;5.23;;;2.40;;
21581;SDS011;10952;50.836;4.348;2023-08-06T00:29:18;7.07;;;2.93;;
21581;SDS011;10952;50.836;4.348;2023-08-06T00:31:44;5.03;;;3.00;;
21581;SDS011;10952;50.836;4.348;2023-08-06T00:34:10;6.20;;;3.40;;
21581;SDS011;10952;50.836;4.348;2023-08-06T00:36:35;9.23;;;3.63;;
21581;SDS011;10952;50.836;4.348;2023-08-06T00:39:01;11.23;;;4.13;;
21581;SDS011;10952;50.836;4.348;2023-08-06T00:41:27;8.03;;;3.43;;
21581;SDS011;10952;50.836;4.348;2023-08-06T00:43:53;11.30;;;4.13;;
21581;SDS011;10952;50.836;4.348;2023-08-06T00:46:19;7.13;;;3.50;;
21581;SDS011;10952;50.836;4.348;2023-08-06T00:48:44;10.37;;;4.30;;
21581;SDS011;10952;50.836;4.348;2023-08-06T00:51:10;9.37;;;4.57;;
21581;SDS011;10952;50.836;4.348;2023-08-06T00:53:37;10.80;;;4.80;;
21581;SDS011;10952;50.836;4.348;2023-08-06T00:56:04;9.80;;;4.40;;
21581;SDS011;10952;50.836;4.348;2023-08-06T00:58:31;11.37;;;4.40;;
21581;SDS011;10952;50.836;4.348;2023-08-06T01:00:57;9.33;;;4.67;;
21581;SDS011;10952;50.836;4.348;2023-08-06T01:03:22;9.00;;;4.97;;
21581;SDS011;10952;50.836;4.348;2023-08-06T01:05:48;12.57;;;5.60;;
21581;SDS011;10952;50.836;4.348;2023-08-06T01:08:17;13.93;;;6.50;;
21581;SDS011;10952;50.836;4.348;2023-08-06T01:13:47;11.37;;;6.20;;
21581;SDS011;10952;50.836;4.348;2023-08-06T01:16:17;9.80;;;5.73;;
21581;SDS011;10952;50.836;4.348;2023-08-06T01:18:44;11.70;;;6.33;;
21581;SDS011;10952;50.836;4.348;2023-08-06T01:21:18;11.80;;;6.20;;
21581;SDS011;10952;50.836;4.348;2023-08-06T01:23:44;14.07;;;6.67;;
21581;SDS011;10952;50.836;4.348;2023-08-06T01:26:18;13.60;;;6.43;;
21581;SDS011;10952;50.836;4.348;2023-08-06T01:28:56;13.10;;;6.57;;
21581;SDS011;10952;50.836;4.348;2023-08-06T01:31:24;12.00;;;6.23;;
21581;SDS011;10952;50.836;4.348;2023-08-06T01:33:55;16.07;;;7.00;;
21581;SDS011;10952;50.836;4.348;2023-08-06T01:36:22;13.37;;;6.93;;
21581;SDS011;10952;50.836;4.348;2023-08-06T01:38:50;12.83;;;6.70;;
21581;SDS011;10952;50.836;4.348;2023-08-06T01:41:19;11.67;;;6.50;;
21581;SDS011;10952;50.836;4.348;2023-08-06T01:43:45;14.17;;;6.13;;
21581;SDS011;10952;50.836;4.348;2023-08-06T01:46:10;16.00;;;5.93;;
21581;SDS011;10952;50.836;4.348;2023-08-06T01:48:36;12.67;;;5.57;;
21581;SDS011;10952;50.836;4.348;2023-08-06T01:51:05;12.80;;;5.97;;
21581;SDS011;10952;50.836;4.348;2023-08-06T01:53:31;9.60;;;5.00;;
21581;SDS011;10952;50.836;4.348;2023-08-06T01:55:57;10.83;;;5.10;;
21581;SDS011;10952;50.836;4.348;2023-08-06T01:58:23;9.37;;;4.73;;
21581;SDS011;10952;50.836;4.348;2023-08-06T02:00:49;8.93;;;4.80;;
21581;SDS011;10952;50.836;4.348;2023-08-06T02:03:15;8.93;;;4.50;;
21581;SDS011;10952;50.836;4.348;2023-08-06T02:05:40;7.33;;;3.90;;
21581;SDS011;10952;50.836;4.348;2023-08-06T02:08:06;10.77;;;3.23;;
21581;SDS011;10952;50.836;4.348;2023-08-06T02:10:32;7.50;;;3.10;;
21581;SDS011;10952;50.836;4.348;2023-08-06T02:12:58;9.40;;;3.37;;
21581;SDS011;10952;50.836;4.348;2023-08-06T02:15:24;10.03;;;3.20;;
21581;SDS011;10952;50.836;4.348;2023-08-06T02:17:50;8.33;;;2.23;;
21581;SDS011;10952;50.836;4.348;2023-08-06T02:20:15;6.53;;;2.20;;
21581;SDS011;10952;50.836;4.348;2023-08-06T02:22:41;10.83;;;3.10;;
21581;SDS011;10952;50.836;4.348;2023-08-06T02:25:07;14.03;;;2.50;;
21581;SDS011;10952;50.836;4.348;2023-08-06T02:27:33;9.53;;;3.33;;
21581;SDS011;10952;50.836;4.348;2023-08-06T02:29:58;10.97;;;2.77;;
21581;SDS011;10952;50.836;4.348;2023-08-06T02:32:24;14.47;;;3.20;;
21581;SDS011;10952;50.836;4.348;2023-08-06T02:34:50;10.10;;;2.23;;
21581;SDS011;10952;50.836;4.348;2023-08-06T02:37:16;8.27;;;2.27;;
21581;SDS011;10952;50.836;4.348;2023-08-06T02:39:42;16.63;;;2.30;;
21581;SDS011;10952;50.836;4.348;2023-08-06T02:42:08;11.40;;;2.40;;
21581;SDS011;10952;50.836;4.348;2023-08-06T02:44:34;7.03;;;3.17;;
21581;SDS011;10952;50.836;4.348;2023-08-06T02:47:00;10.30;;;2.43;;
21581;SDS011;10952;50.836;4.348;2023-08-06T02:49:26;8.60;;;2.60;;
21581;SDS011;10952;50.836;4.348;2023-08-06T02:51:52;6.30;;;1.97;;
21581;SDS011;10952;50.836;4.348;2023-08-06T02:54:18;11.63;;;2.57;;
21581;SDS011;10952;50.836;4.348;2023-08-06T02:56:45;7.70;;;2.07;;
21581;SDS011;10952;50.836;4.348;2023-08-06T02:59:12;7.37;;;3.17;;
21581;SDS011;10952;50.836;4.348;2023-08-06T03:01:38;12.73;;;2.43;;
21581;SDS011;10952;50.836;4.348;2023-08-06T03:04:04;14.73;;;2.57;;
21581;SDS011;10952;50.836;4.348;2023-08-06T03:06:30;5.83;;;2.93;;
21581;SDS011;10952;50.836;4.348;2023-08-06T03:08:56;12.93;;;3.37;;
21581;SDS011;10952;50.836;4.348;2023-08-06T03:11:22;13.07;;;3.57;;
21581;SDS011;10952;50.836;4.348;2023-08-06T03:13:47;8.93;;;3.10;;
21581;SDS011;10952;50.836;4.348;2023-08-06T03:16:13;13.43;;;3.90;;
21581;SDS011;10952;50.836;4.348;2023-08-06T03:18:39;13.77;;;6.13;;
21581;SDS011;10952;50.836;4.348;2023-08-06T03:21:05;17.07;;;7.40;;
21581;SDS011;10952;50.836;4.348;2023-08-06T03:23:31;16.87;;;8.07;;
21581;SDS011;10952;50.836;4.348;2023-08-06T03:26:00;19.70;;;9.77;;
21581;SDS011;10952;50.836;4.348;2023-08-06T03:28:29;19.77;;;9.77;;
21581;SDS011;10952;50.836;4.348;2023-08-06T03:30:59;21.53;;;9.80;;
21581;SDS011;10952;50.836;4.348;2023-08-06T03:33:28;18.73;;;9.77;;
21581;SDS011;10952;50.836;4.348;2023-08-06T03:35:54;13.50;;;7.73;;
21581;SDS011;10952;50.836;4.348;2023-08-06T03:38:20;17.50;;;7.63;;
21581;SDS011;10952;50.836;4.348;2023-08-06T03:40:47;11.57;;;7.17;;
21581;SDS011;10952;50.836;4.348;2023-08-06T03:43:13;12.83;;;7.03;;
21581;SDS011;10952;50.836;4.348;2023-08-06T03:45:39;9.73;;;5.50;;
21581;SDS011;10952;50.836;4.348;2023-08-06T03:48:06;9.13;;;4.63;;
21581;SDS011;10952;50.836;4.348;2023-08-06T03:50:32;5.67;;;3.63;;
21581;SDS011;10952;50.836;4.348;2023-08-06T03:52:58;5.47;;;3.00;;
21581;SDS011;10952;50.836;4.348;2023-08-06T03:55:23;3.63;;;1.70;;
21581;SDS011;10952;50.836;4.348;2023-08-06T03:57:49;3.47;;;1.60;;
21581;SDS011;10952;50.836;4.348;2023-08-06T04:00:15;4.07;;;1.67;;
21581;SDS011;10952;50.836;4.348;2023-08-06T04:02:41;3.47;;;1.43;;
21581;SDS011;10952;50.836;4.348;2023-08-06T04:05:07;8.87;;;1.53;;
21581;SDS011;10952;50.836;4.348;2023-08-06T04:07:32;4.93;;;1.33;;
21581;SDS011;10952;50.836;4.348;2023-08-06T04:10:00;3.03;;;0.87;;
21581;SDS011;10952;50.836;4.348;2023-08-06T04:12:27;3.30;;;1.10;;
21581;SDS011;10952;50.836;4.348;2023-08-06T04:14:53;1.93;;;1.00;;
21581;SDS011;10952;50.836;4.348;2023-08-06T04:17:20;2.17;;;1.30;;
21581;SDS011;10952;50.836;4.348;2023-08-06T04:19:53;2.80;;;1.40;;
21581;SDS011;10952;50.836;4.348;2023-08-06T04:22:19;4.00;;;1.60;;
21581;SDS011;10952;50.836;4.348;2023-08-06T04:24:46;3.33;;;1.50;;
21581;SDS011;10952;50.836;4.348;2023-08-06T04:27:12;4.13;;;1.70;;
21581;SDS011;10952;50.836;4.348;2023-08-06T04:29:39;2.93;;;1.90;;
21581;SDS011;10952;50.836;4.348;2023-08-06T04:32:06;5.53;;;2.30;;
21581;SDS011;10952;50.836;4.348;2023-08-06T04:34:33;4.43;;;2.47;;
21581;SDS011;10952;50.836;4.348;2023-08-06T04:36:59;7.10;;;2.63;;
21581;SDS011;10952;50.836;4.348;2023-08-06T04:39:25;9.33;;;1.83;;
21581;SDS011;10952;50.836;4.348;2023-08-06T04:41:51;5.37;;;2.40;;
21581;SDS011;10952;50.836;4.348;2023-08-06T04:44:17;4.17;;;2.33;;
21581;SDS011;10952;50.836;4.348;2023-08-06T04:46:43;5.83;;;2.17;;
21581;SDS011;10952;50.836;4.348;2023-08-06T04:49:09;5.90;;;3.53;;
21581;SDS011;10952;50.836;4.348;2023-08-06T04:51:34;6.90;;;3.60;;
21581;SDS011;10952;50.836;4.348;2023-08-06T04:54:00;6.57;;;3.20;;
21581;SDS011;10952;50.836;4.348;2023-08-06T04:56:26;6.47;;;3.03;;
21581;SDS011;10952;50.836;4.348;2023-08-06T04:58:52;8.77;;;4.50;;
21581;SDS011;10952;50.836;4.348;2023-08-06T05:01:18;6.43;;;4.37;;
21581;SDS011;10952;50.836;4.348;2023-08-06T05:03:43;8.07;;;4.00;;
21581;SDS011;10952;50.836;4.348;2023-08-06T05:06:09;10.13;;;4.47;;
21581;SDS011;10952;50.836;4.348;2023-08-06T05:08:35;8.83;;;3.63;;
21581;SDS011;10952;50.836;4.348;2023-08-06T05:11:01;8.03;;;4.40;;
21581;SDS011;10952;50.836;4.348;2023-08-06T05:13:27;7.17;;;3.70;;
21581;SDS011;10952;50.836;4.348;2023-08-06T05:15:53;8.40;;;3.87;;
21581;SDS011;10952;50.836;4.348;2023-08-06T05:18:19;8.60;;;4.27;;
21581;SDS011;10952;50.836;4.348;2023-08-06T05:20:45;8.03;;;3.33;;
21581;SDS011;10952;50.836;4.348;2023-08-06T05:23:11;8.87;;;4.03;;
21581;SDS011;10952;50.836;4.348;2023-08-06T05:25:37;9.90;;;3.63;;
21581;SDS011;10952;50.836;4.348;2023-08-06T05:28:03;9.70;;;4.30;;
21581;SDS011;10952;50.836;4.348;2023-08-06T05:30:29;14.03;;;5.03;;
21581;SDS011;10952;50.836;4.348;2023-08-06T05:32:55;9.73;;;3.70;;
21581;SDS011;10952;50.836;4.348;2023-08-06T05:35:21;12.67;;;4.30;;
21581;SDS011;10952;50.836;4.348;2023-08-06T05:37:47;13.00;;;4.40;;
21581;SDS011;10952;50.836;4.348;2023-08-06T05:40:13;9.13;;;3.80;;
21581;SDS011;10952;50.836;4.348;2023-08-06T05:42:40;10.83;;;3.80;;
21581;SDS011;10952;50.836;4.348;2023-08-06T05:45:05;15.73;;;4.20;;
21581;SDS011;10952;50.836;4.348;2023-08-06T05:47:32;15.50;;;4.17;;
21581;SDS011;10952;50.836;4.348;2023-08-06T05:49:58;13.37;;;4.30;;
21581;SDS011;10952;50.836;4.348;2023-08-06T05:52:23;7.63;;;2.90;;
21581;SDS011;10952;50.836;4.348;2023-08-06T05:54:49;13.77;;;4.73;;
21581;SDS011;10952;50.836;4.348;2023-08-06T05:57:15;9.90;;;3.90;;
21581;SDS011;10952;50.836;4.348;2023-08-06T05:59:41;13.03;;;4.50;;
21581;SDS011;10952;50.836;4.348;2023-08-06T06:02:07;14.80;;;4.63;;
21581;SDS011;10952;50.836;4.348;2023-08-06T06:04:33;9.90;;;4.03;;
21581;SDS011;10952;50.836;4.348;2023-08-06T06:06:58;9.00;;;3.43;;
21581;SDS011;10952;50.836;4.348;2023-08-06T06:09:24;10.87;;;3.63;;
21581;SDS011;10952;50.836;4.348;2023-08-06T06:11:50;9.27;;;3.73;;
21581;SDS011;10952;50.836;4.348;2023-08-06T06:14:16;12.13;;;3.97;;
21581;SDS011;10952;50.836;4.348;2023-08-06T06:16:43;14.17;;;4.40;;
21581;SDS011;10952;50.836;4.348;2023-08-06T06:19:09;10.23;;;3.77;;
21581;SDS011;10952;50.836;4.348;2023-08-06T06:21:35;13.30;;;3.53;;
21581;SDS011;10952;50.836;4.348;2023-08-06T06:24:01;10.57;;;3.30;;
21581;SDS011;10952;50.836;4.348;2023-08-06T06:26:27;15.60;;;4.33;;
21581;SDS011;10952;50.836;4.348;2023-08-06T06:28:53;14.90;;;4.07;;
21581;SDS011;10952;50.836;4.348;2023-08-06T06:31:19;10.50;;;4.00;;
21581;SDS011;10952;50.836;4.348;2023-08-06T06:33:44;9.77;;;2.97;;
21581;SDS011;10952;50.836;4.348;2023-08-06T06:36:10;11.17;;;3.43;;
21581;SDS011;10952;50.836;4.348;2023-08-06T06:38:36;15.00;;;3.87;;
21581;SDS011;10952;50.836;4.348;2023-08-06T06:41:02;11.30;;;3.80;;
21581;SDS011;10952;50.836;4.348;2023-08-06T06:43:28;8.37;;;3.90;;
21581;SDS011;10952;50.836;4.348;2023-08-06T06:45:57;12.57;;;3.43;;
21581;SDS011;10952;50.836;4.348;2023-08-06T06:48:25;12.37;;;3.53;;
21581;SDS011;10952;50.836;4.348;2023-08-06T06:50:52;11.67;;;3.53;;
21581;SDS011;10952;50.836;4.348;2023-08-06T06:53:17;11.63;;;4.47;;
21581;SDS011;10952;50.836;4.348;2023-08-06T06:55:43;13.63;;;4.13;;
21581;SDS011;10952;50.836;4.348;2023-08-06T06:58:09;8.17;;;3.07;;
21581;SDS011;10952;50.836;4.348;2023-08-06T07:00:36;12.77;;;3.47;;
21581;SDS011;10952;50.836;4.348;2023-08-06T07:03:02;6.93;;;2.70;;
21581;SDS011;10952;50.836;4.348;2023-08-06T07:05:28;12.50;;;3.00;;
21581;SDS011;10952;50.836;4.348;2023-08-06T07:07:54;9.50;;;2.47;;
21581;SDS011;10952;50.836;4.348;2023-08-06T07:10:19;5.57;;;1.80;;
21581;SDS011;10952;50.836;4.348;2023-08-06T07:12:45;6.97;;;1.73;;
21581;SDS011;10952;50.836;4.348;2023-08-06T07:15:11;7.07;;;1.70;;
21581;SDS011;10952;50.836;4.348;2023-08-06T07:17:37;7.70;;;1.60;;
21581;SDS011;10952;50.836;4.348;2023-08-06T07:20:02;7.97;;;1.90;;
21581;SDS011;10952;50.836;4.348;2023-08-06T07:22:29;8.27;;;2.23;;
21581;SDS011;10952;50.836;4.348;2023-08-06T07:24:55;11.93;;;1.93;;
21581;SDS011;10952;50.836;4.348;2023-08-06T07:27:20;9.77;;;2.53;;
21581;SDS011;10952;50.836;4.348;2023-08-06T07:29:46;7.50;;;1.87;;
21581;SDS011;10952;50.836;4.348;2023-08-06T07:32:13;11.30;;;1.70;;
21581;SDS011;10952;50.836;4.348;2023-08-06T07:34:39;9.00;;;2.10;;
21581;SDS011;10952;50.836;4.348;2023-08-06T07:37:06;6.40;;;1.33;;
21581;SDS011;10952;50.836;4.348;2023-08-06T07:39:31;9.63;;;1.93;;
21581;SDS011;10952;50.836;4.348;2023-08-06T07:41:59;6.43;;;1.70;;
21581;SDS011;10952;50.836;4.348;2023-08-06T07:44:27;6.80;;;1.70;;
21581;SDS011;10952;50.836;4.348;2023-08-06T07:46:53;10.80;;;1.50;;
21581;SDS011;10952;50.836;4.348;2023-08-06T07:49:18;12.73;;;2.00;;
21581;SDS011;10952;50.836;4.348;2023-08-06T07:51:44;8.67;;;1.50;;
21581;SDS011;10952;50.836;4.348;2023-08-06T07:54:10;5.63;;;1.30;;
21581;SDS011;10952;50.836;4.348;2023-08-06T07:56:35;9.57;;;1.70;;
21581;SDS011;10952;50.836;4.348;2023-08-06T07:59:01;8.73;;;1.87;;
21581;SDS011;10952;50.836;4.348;2023-08-06T08:01:27;12.93;;;2.47;;
21581;SDS011;10952;50.836;4.348;2023-08-06T08:03:53;9.40;;;1.73;;
21581;SDS011;10952;50.836;4.348;2023-08-06T08:06:19;4.03;;;1.27;;
21581;SDS011;10952;50.836;4.348;2023-08-06T08:08:44;7.77;;;1.73;;
21581;SDS011;10952;50.836;4.348;2023-08-06T08:11:10;7.93;;;1.50;;
21581;SDS011;10952;50.836;4.348;2023-08-06T08:13:36;7.63;;;1.47;;
21581;SDS011;10952;50.836;4.348;2023-08-06T08:16:02;5.13;;;1.67;;
21581;SDS011;10952;50.836;4.348;2023-08-06T08:18:27;9.97;;;1.57;;
21581;SDS011;10952;50.836;4.348;2023-08-06T08:20:54;8.27;;;1.57;;
21581;SDS011;10952;50.836;4.348;2023-08-06T08:23:20;6.60;;;1.30;;
21581;SDS011;10952;50.836;4.348;2023-08-06T08:25:46;10.03;;;1.83;;
21581;SDS011;10952;50.836;4.348;2023-08-06T08:28:12;8.47;;;1.83;;
21581;SDS011;10952;50.836;4.348;2023-08-06T08:30:37;10.00;;;2.20;;
21581;SDS011;10952;50.836;4.348;2023-08-06T08:33:05;9.93;;;1.70;;
21581;SDS011;10952;50.836;4.348;2023-08-06T08:35:31;7.80;;;1.97;;
21581;SDS011;10952;50.836;4.348;2023-08-06T08:37:56;6.07;;;1.47;;
21581;SDS011;10952;50.836;4.348;2023-08-06T08:40:22;6.23;;;1.60;;
21581;SDS011;10952;50.836;4.348;2023-08-06T08:42:54;5.37;;;1.73;;
21581;SDS011;10952;50.836;4.348;2023-08-06T08:45:21;10.23;;;2.37;;
21581;SDS011;10952;50.836;4.348;2023-08-06T08:47:51;7.87;;;1.73;;
21581;SDS011;10952;50.836;4.348;2023-08-06T08:50:17;8.10;;;1.90;;
21581;SDS011;10952;50.836;4.348;2023-08-06T08:52:44;10.50;;;2.20;;
21581;SDS011;10952;50.836;4.348;2023-08-06T08:55:11;7.83;;;2.00;;
21581;SDS011;10952;50.836;4.348;2023-08-06T08:57:39;10.13;;;1.63;;
21581;SDS011;10952;50.836;4.348;2023-08-06T09:00:05;8.60;;;1.63;;
21581;SDS011;10952;50.836;4.348;2023-08-06T09:02:32;7.80;;;1.90;;
21581;SDS011;10952;50.836;4.348;2023-08-06T09:04:59;10.80;;;1.90;;
21581;SDS011;10952;50.836;4.348;2023-08-06T09:07:27;13.73;;;2.10;;
21581;SDS011;10952;50.836;4.348;2023-08-06T09:09:58;12.40;;;2.17;;
21581;SDS011;10952;50.836;4.348;2023-08-06T09:12:29;9.03;;;1.63;;
21581;SDS011;10952;50.836;4.348;2023-08-06T09:14:55;12.63;;;2.30;;
21581;SDS011;10952;50.836;4.348;2023-08-06T09:17:21;11.80;;;1.90;;
21581;SDS011;10952;50.836;4.348;2023-08-06T09:19:46;9.60;;;1.90;;
21581;SDS011;10952;50.836;4.348;2023-08-06T09:22:13;9.87;;;2.30;;
21581;SDS011;10952;50.836;4.348;2023-08-06T09:24:40;12.37;;;2.10;;
21581;SDS011;10952;50.836;4.348;2023-08-06T09:27:10;12.20;;;2.27;;
21581;SDS011;10952;50.836;4.348;2023-08-06T09:29:40;7.00;;;2.10;;
21581;SDS011;10952;50.836;4.348;2023-08-06T09:32:07;9.07;;;1.60;;
21581;SDS011;10952;50.836;4.348;2023-08-06T09:34:32;7.60;;;1.40;;
21581;SDS011;10952;50.836;4.348;2023-08-06T09:36:58;12.43;;;2.33;;
21581;SDS011;10952;50.836;4.348;2023-08-06T09:39:27;11.30;;;2.37;;
21581;SDS011;10952;50.836;4.348;2023-08-06T09:41:58;9.70;;;2.10;;
21581;SDS011;10952;50.836;4.348;2023-08-06T09:44:25;12.27;;;2.30;;
21581;SDS011;10952;50.836;4.348;2023-08-06T09:46:53;8.30;;;2.17;;
21581;SDS011;10952;50.836;4.348;2023-08-06T09:49:24;9.07;;;2.13;;
21581;SDS011;10952;50.836;4.348;2023-08-06T09:51:52;8.97;;;1.93;;
21581;SDS011;10952;50.836;4.348;2023-08-06T09:54:20;6.30;;;1.53;;
21581;SDS011;10952;50.836;4.348;2023-08-06T09:56:48;6.57;;;1.83;;
21581;SDS011;10952;50.836;4.348;2023-08-06T09:59:15;10.27;;;2.03;;
21581;SDS011;10952;50.836;4.348;2023-08-06T10:01:42;10.17;;;2.23;;
21581;SDS011;10952;50.836;4.348;2023-08-06T10:04:08;15.73;;;2.47;;
21581;SDS011;10952;50.836;4.348;2023-08-06T10:06:36;9.13;;;1.43;;
21581;SDS011;10952;50.836;4.348;2023-08-06T10:09:03;9.47;;;2.30;;
21581;SDS011;10952;50.836;4.348;2023-08-06T10:11:29;13.80;;;2.10;;
21581;SDS011;10952;50.836;4.348;2023-08-06T10:14:03;9.87;;;2.30;;
21581;SDS011;10952;50.836;4.348;2023-08-06T10:16:46;6.73;;;1.53;;
21581;SDS011;10952;50.836;4.348;2023-08-06T10:19:12;13.17;;;1.87;;
21581;SDS011;10952;50.836;4.348;2023-08-06T10:21:40;6.83;;;1.43;;
21581;SDS011;10952;50.836;4.348;2023-08-06T10:24:09;7.73;;;1.60;;
21581;SDS011;10952;50.836;4.348;2023-08-06T10:26:39;11.00;;;1.47;;
21581;SDS011;10952;50.836;4.348;2023-08-06T10:32:16;9.70;;;1.80;;
21581;SDS011;10952;50.836;4.348;2023-08-06T10:34:56;12.27;;;1.90;;
21581;SDS011;10952;50.836;4.348;2023-08-06T10:37:23;12.10;;;1.77;;
21581;SDS011;10952;50.836;4.348;2023-08-06T10:40:09;7.87;;;2.00;;
21581;SDS011;10952;50.836;4.348;2023-08-06T10:42:34;6.67;;;1.73;;
21581;SDS011;10952;50.836;4.348;2023-08-06T10:45:14;10.50;;;1.93;;
21581;SDS011;10952;50.836;4.348;2023-08-06T10:47:41;9.33;;;1.90;;
21581;SDS011;10952;50.836;4.348;2023-08-06T10:50:10;11.07;;;2.87;;
21581;SDS011;10952;50.836;4.348;2023-08-06T10:52:37;11.93;;;2.90;;
21581;SDS011;10952;50.836;4.348;2023-08-06T10:55:03;13.67;;;3.17;;
21581;SDS011;10952;50.836;4.348;2023-08-06T10:57:29;9.13;;;2.90;;
21581;SDS011;10952;50.836;4.348;2023-08-06T10:59:55;10.43;;;2.13;;
21581;SDS011;10952;50.836;4.348;2023-08-06T11:02:21;10.13;;;2.43;;
21581;SDS011;10952;50.836;4.348;2023-08-06T11:04:47;12.17;;;2.80;;
21581;SDS011;10952;50.836;4.348;2023-08-06T11:07:13;12.83;;;2.83;;
21581;SDS011;10952;50.836;4.348;2023-08-06T11:09:39;10.93;;;2.60;;
21581;SDS011;10952;50.836;4.348;2023-08-06T11:12:11;9.97;;;3.20;;
21581;SDS011;10952;50.836;4.348;2023-08-06T11:14:37;10.23;;;2.17;;
21581;SDS011;10952;50.836;4.348;2023-08-06T11:17:04;10.17;;;2.47;;
21581;SDS011;10952;50.836;4.348;2023-08-06T11:19:30;6.50;;;2.10;;
21581;SDS011;10952;50.836;4.348;2023-08-06T11:21:56;14.67;;;3.00;;
21581;SDS011;10952;50.836;4.348;2023-08-06T11:24:23;12.30;;;2.63;;
21581;SDS011;10952;50.836;4.348;2023-08-06T11:26:49;8.67;;;3.50;;
21581;SDS011;10952;50.836;4.348;2023-08-06T11:29:15;5.97;;;1.60;;
21581;SDS011;10952;50.836;4.348;2023-08-06T11:31:41;5.33;;;1.87;;
21581;SDS011;10952;50.836;4.348;2023-08-06T11:34:07;7.30;;;2.20;;
21581;SDS011;10952;50.836;4.348;2023-08-06T11:36:36;6.80;;;1.50;;
21581;SDS011;10952;50.836;4.348;2023-08-06T11:39:06;9.40;;;2.23;;
21581;SDS011;10952;50.836;4.348;2023-08-06T11:41:32;6.53;;;1.47;;
21581;SDS011;10952;50.836;4.348;2023-08-06T11:43:58;12.77;;;1.90;;
21581;SDS011;10952;50.836;4.348;2023-08-06T11:46:24;9.27;;;2.10;;
21581;SDS011;10952;50.836;4.348;2023-08-06T11:48:51;9.67;;;2.13;;
21581;SDS011;10952;50.836;4.348;2023-08-06T11:51:24;8.90;;;2.83;;
21581;SDS011;10952;50.836;4.348;2023-08-06T11:53:59;10.37;;;1.83;;
21581;SDS011;10952;50.836;4.348;2023-08-06T11:56:25;4.73;;;1.37;;
21581;SDS011;10952;50.836;4.348;2023-08-06T11:58:52;5.93;;;1.57;;
21581;SDS011;10952;50.836;4.348;2023-08-06T12:01:18;8.37;;;2.20;;
21581;SDS011;10952;50.836;4.348;2023-08-06T12:03:44;10.10;;;1.97;;
21581;SDS011;10952;50.836;4.348;2023-08-06T12:06:09;8.87;;;1.90;;
21581;SDS011;10952;50.836;4.348;2023-08-06T12:08:35;6.13;;;1.70;;
21581;SDS011;10952;50.836;4.348;2023-08-06T12:11:03;6.90;;;1.77;;
21581;SDS011;10952;50.836;4.348;2023-08-06T12:13:28;7.77;;;1.93;;
21581;SDS011;10952;50.836;4.348;2023-08-06T12:15:54;8.77;;;1.87;;
21581;SDS011;10952;50.836;4.348;2023-08-06T12:18:22;10.23;;;2.17;;
21581;SDS011;10952;50.836;4.348;2023-08-06T12:20:48;11.07;;;2.00;;
21581;SDS011;10952;50.836;4.348;2023-08-06T12:23:14;6.40;;;2.07;;
21581;SDS011;10952;50.836;4.348;2023-08-06T12:25:40;7.77;;;2.47;;
21581;SDS011;10952;50.836;4.348;2023-08-06T12:28:07;9.60;;;3.13;;
21581;SDS011;10952;50.836;4.348;2023-08-06T12:30:34;13.10;;;3.30;;
21581;SDS011;10952;50.836;4.348;2023-08-06T12:33:00;8.07;;;2.43;;
21581;SDS011;10952;50.836;4.348;2023-08-06T12:35:25;7.23;;;1.90;;
21581;SDS011;10952;50.836;4.348;2023-08-06T12:37:51;9.60;;;2.30;;
21581;SDS011;10952;50.836;4.348;2023-08-06T12:40:19;10.13;;;3.00;;
21581;SDS011;10952;50.836;4.348;2023-08-06T12:42:45;7.50;;;2.03;;
21581;SDS011;10952;50.836;4.348;2023-08-06T12:45:11;9.77;;;2.17;;
21581;SDS011;10952;50.836;4.348;2023-08-06T12:47:37;7.23;;;1.50;;
21581;SDS011;10952;50.836;4.348;2023-08-06T12:50:03;9.73;;;2.97;;
21581;SDS011;10952;50.836;4.348;2023-08-06T12:52:29;5.93;;;2.17;;
21581;SDS011;10952;50.836;4.348;2023-08-06T12:54:54;11.87;;;2.87;;
21581;SDS011;10952;50.836;4.348;2023-08-06T12:57:20;6.00;;;2.03;;
21581;SDS011;10952;50.836;4.348;2023-08-06T12:59:46;7.17;;;1.70;;
21581;SDS011;10952;50.836;4.348;2023-08-06T13:02:13;6.73;;;2.00;;
21581;SDS011;10952;50.836;4.348;2023-08-06T13:04:39;8.60;;;1.87;;
21581;SDS011;10952;50.836;4.348;2023-08-06T13:07:04;8.13;;;2.20;;
21581;SDS011;10952;50.836;4.348;2023-08-06T13:09:31;6.67;;;2.10;;
21581;SDS011;10952;50.836;4.348;2023-08-06T13:11:57;9.17;;;2.20;;
21581;SDS011;10952;50.836;4.348;2023-08-06T13:14:24;7.50;;;2.17;;
21581;SDS011;10952;50.836;4.348;2023-08-06T13:16:50;6.23;;;1.87;;
21581;SDS011;10952;50.836;4.348;2023-08-06T13:19:16;8.23;;;1.93;;
21581;SDS011;10952;50.836;4.348;2023-08-06T13:24:15;7.73;;;2.23;;
21581;SDS011;10952;50.836;4.348;2023-08-06T13:26:41;9.53;;;2.17;;
21581;SDS011;10952;50.836;4.348;2023-08-06T13:29:06;9.03;;;2.00;;
21581;SDS011;10952;50.836;4.348;2023-08-06T13:31:32;8.40;;;2.43;;
21581;SDS011;10952;50.836;4.348;2023-08-06T13:33:58;17.53;;;3.20;;
21581;SDS011;10952;50.836;4.348;2023-08-06T13:36:24;11.70;;;2.17;;
21581;SDS011;10952;50.836;4.348;2023-08-06T13:38:53;7.07;;;1.80;;
21581;SDS011;10952;50.836;4.348;2023-08-06T13:41:19;8.53;;;2.20;;
21581;SDS011;10952;50.836;4.348;2023-08-06T13:43:45;8.90;;;2.67;;
21581;SDS011;10952;50.836;4.348;2023-08-06T13:46:11;11.73;;;2.10;;
21581;SDS011;10952;50.836;4.348;2023-08-06T13:48:44;7.00;;;2.43;;
21581;SDS011;10952;50.836;4.348;2023-08-06T13:51:11;13.07;;;2.50;;
21581;SDS011;10952;50.836;4.348;2023-08-06T13:53:38;6.13;;;2.27;;
21581;SDS011;10952;50.836;4.348;2023-08-06T13:56:07;9.10;;;1.63;;
21581;SDS011;10952;50.836;4.348;2023-08-06T13:58:35;11.23;;;1.90;;
21581;SDS011;10952;50.836;4.348;2023-08-06T14:01:01;6.03;;;1.50;;
21581;SDS011;10952;50.836;4.348;2023-08-06T14:03:26;9.57;;;2.27;;
21581;SDS011;10952;50.836;4.348;2023-08-06T14:05:52;5.43;;;1.77;;
21581;SDS011;10952;50.836;4.348;2023-08-06T14:08:21;4.33;;;1.10;;
21581;SDS011;10952;50.836;4.348;2023-08-06T14:10:51;8.97;;;1.50;;
21581;SDS011;10952;50.836;4.348;2023-08-06T14:13:17;11.53;;;1.73;;
21581;SDS011;10952;50.836;4.348;2023-08-06T14:15:43;8.23;;;1.53;;
21581;SDS011;10952;50.836;4.348;2023-08-06T14:18:12;8.00;;;2.17;;
21581;SDS011;10952;50.836;4.348;2023-08-06T14:20:38;8.40;;;1.40;;
21581;SDS011;10952;50.836;4.348;2023-08-06T14:23:04;6.27;;;1.03;;
21581;SDS011;10952;50.836;4.348;2023-08-06T14:25:31;8.70;;;1.90;;
21581;SDS011;10952;50.836;4.348;2023-08-06T14:27:57;7.33;;;1.70;;
21581;SDS011;10952;50.836;4.348;2023-08-06T14:30:23;9.23;;;1.70;;
21581;SDS011;10952;50.836;4.348;2023-08-06T14:32:48;10.50;;;2.23;;
21581;SDS011;10952;50.836;4.348;2023-08-06T14:35:14;7.43;;;2.03;;
21581;SDS011;10952;50.836;4.348;2023-08-06T14:37:40;7.23;;;2.07;;
21581;SDS011;10952;50.836;4.348;2023-08-06T14:40:06;6.23;;;2.13;;
21581;SDS011;10952;50.836;4.348;2023-08-06T14:42:33;5.93;;;1.80;;
21581;SDS011;10952;50.836;4.348;2023-08-06T14:44:58;5.63;;;1.40;;
21581;SDS011;10952;50.836;4.348;2023-08-06T14:47:24;6.30;;;1.87;;